Terminal Aerodrome Forecast
Issued by NWS

Home | Current Version | Previous Version | Text Only | Print | Product List | Glossary On
Versions: 1 2 3 4 5 6 7 8 9 10 11 12 13 14 15
000
FTUS42 KTAE 251720
TAFABY
TAF
KABY 251720Z 2518/2618 16010G16KT P6SM SCT040 BKN250
     FM260000 16006KT P6SM BKN050
     FM260600 VRB08G13KT 6SM SHRA OVC040
     FM261000 14006KT 6SM BR FEW025 BKN040
     FM261500 17010KT P6SM BKN050=

USA.gov is the U.S. government's official web portal to all federal, state and local government web resources and services.